Time;durP1;ratioP1;P1;durP2;ratioP2;P2;SDS_P1;SDS_P2;PMS_P1;PMS_P2;Temp;Humidity;BMP_temperature;BMP_pressure;BME280_temperature;BME280_humidity;BME280_pressure;Samples;Min_cycle;Max_cycle;Signal;HPM_P1;HPM_P2
2023/06/25 00:00:57;;;;;;;14.30;12.00;;;15.80;99.90;;;;;;4978911;28;20062;-72
2023/06/25 00:03:23;;;;;;;17.58;13.32;;;15.70;99.90;;;;;;4962459;28;20514;-72
2023/06/25 00:05:49;;;;;;;16.02;12.45;;;15.70;99.90;;;;;;4979235;28;20054;-72
2023/06/25 00:08:16;;;;;;;16.67;11.63;;;15.70;99.90;;;;;;4978262;28;20046;-73
2023/06/25 00:10:42;;;;;;;13.18;10.23;;;15.60;99.90;;;;;;4974309;28;20597;-72
2023/06/25 00:13:08;;;;;;;11.63;9.45;;;15.60;99.90;;;;;;4975839;28;20142;-72
2023/06/25 00:15:34;;;;;;;10.07;7.55;;;15.60;99.90;;;;;;4978747;28;20136;-72
2023/06/25 00:18:00;;;;;;;9.35;7.07;;;15.60;99.90;;;;;;4978623;28;20046;-72
2023/06/25 00:20:26;;;;;;;14.07;9.45;;;15.50;99.90;;;;;;4979009;28;20050;-73
2023/06/25 00:22:52;;;;;;;14.43;10.65;;;15.50;99.90;;;;;;4978674;28;20468;-72
2023/06/25 00:25:18;;;;;;;19.65;10.60;;;15.50;99.90;;;;;;4978303;28;20042;-72
2023/06/25 00:27:47;;;;;;;16.80;9.85;;;15.50;99.90;;;;;;4978358;28;20062;-72
2023/06/25 00:30:15;;;;;;;12.48;10.32;;;15.50;99.90;;;;;;4978612;28;20054;-73
2023/06/25 00:32:42;;;;;;;19.50;13.68;;;15.50;99.90;;;;;;4982095;28;20284;-72
2023/06/25 00:35:09;;;;;;;23.00;14.90;;;15.50;99.90;;;;;;4981289;28;20039;-72
2023/06/25 00:37:36;;;;;;;25.67;16.13;;;15.50;99.90;;;;;;4978615;28;20644;-73
2023/06/25 00:40:04;;;;;;;25.08;16.20;;;15.50;99.90;;;;;;4980194;28;20056;-73
2023/06/25 00:42:42;;;;;;;22.98;16.02;;;15.50;99.90;;;;;;4981952;28;20066;-72
2023/06/25 00:45:09;;;;;;;22.17;15.43;;;15.50;99.90;;;;;;4982785;28;20066;-73
2023/06/25 00:47:35;;;;;;;25.27;15.60;;;15.40;99.90;;;;;;4981341;28;20043;-72
2023/06/25 00:50:02;;;;;;;24.05;16.15;;;15.40;99.90;;;;;;4979791;28;20133;-73
2023/06/25 00:52:28;;;;;;;22.60;15.40;;;15.40;99.90;;;;;;4981021;28;20054;-72
2023/06/25 00:54:54;;;;;;;17.63;12.88;;;15.40;99.90;;;;;;4983503;28;20499;-73
2023/06/25 00:57:21;;;;;;;15.93;12.23;;;15.40;99.90;;;;;;4983573;28;20058;-72
2023/06/25 00:59:48;;;;;;;14.52;11.85;;;15.30;99.90;;;;;;4980177;28;20054;-72
2023/06/25 01:02:33;;;;;;;11.93;9.88;;;15.30;99.90;;;;;;4981010;28;20061;-72
2023/06/25 01:05:11;;;;;;;9.07;5.07;;;15.30;99.90;;;;;;4980637;28;20454;-73
2023/06/25 01:07:42;;;;;;;2.80;2.10;;;15.30;99.90;;;;;;4974979;28;20074;-72
2023/06/25 01:10:10;;;;;;;4.10;1.65;;;15.10;99.90;;;;;;4979688;28;20646;-72
2023/06/25 01:12:36;;;;;;;3.00;1.88;;;15.10;99.90;;;;;;4982955;28;20079;-72
2023/06/25 01:15:03;;;;;;;2.63;1.50;;;15.10;99.90;;;;;;4979819;28;20082;-72
2023/06/25 01:17:29;;;;;;;4.65;1.73;;;15.00;99.90;;;;;;4982640;28;20124;-72
2023/06/25 01:19:55;;;;;;;2.60;1.70;;;15.00;99.90;;;;;;4981876;28;20106;-72
2023/06/25 01:22:43;;;;;;;3.85;2.63;;;14.80;99.90;;;;;;4963422;28;20063;-72
2023/06/25 01:25:09;;;;;;;4.80;3.20;;;15.00;99.90;;;;;;4979107;28;20307;-71
2023/06/25 01:27:35;;;;;;;6.10;3.22;;;14.90;99.90;;;;;;4965207;28;20897;-72
2023/06/25 01:30:08;;;;;;;2.75;1.75;;;14.90;99.90;;;;;;4978886;28;20057;-72
2023/06/25 01:32:34;;;;;;;3.10;1.95;;;14.90;99.90;;;;;;4977798;28;20066;-72
2023/06/25 01:35:00;;;;;;;3.05;2.05;;;14.80;99.90;;;;;;4970652;28;20122;-71
2023/06/25 01:37:30;;;;;;;4.63;3.20;;;14.80;99.90;;;;;;4978233;28;20522;-72
2023/06/25 01:39:56;;;;;;;4.90;3.45;;;14.80;99.90;;;;;;4978815;28;20686;-72
2023/06/25 01:42:22;;;;;;;8.43;6.25;;;14.80;99.90;;;;;;4980889;28;20069;-73
2023/06/25 01:44:48;;;;;;;21.48;14.95;;;14.80;99.90;;;;;;4977908;28;20161;-73
2023/06/25 01:47:14;;;;;;;18.00;13.27;;;14.80;99.90;;;;;;4978673;28;20800;-72
2023/06/25 01:49:39;;;;;;;15.23;12.05;;;14.90;99.90;;;;;;4976741;28;20054;-72
2023/06/25 01:52:07;;;;;;;13.48;10.85;;;14.90;99.90;;;;;;4980600;28;20084;-72
2023/06/25 01:54:33;;;;;;;15.70;11.95;;;14.90;99.90;;;;;;4975310;28;20059;-71
2023/06/25 01:57:01;;;;;;;15.77;11.77;;;14.90;99.90;;;;;;4980325;28;20050;-72
2023/06/25 01:59:33;;;;;;;14.55;10.73;;;14.90;99.90;;;;;;4980243;28;20078;-72
2023/06/25 02:01:59;;;;;;;18.55;12.13;;;14.80;99.90;;;;;;4964400;28;21094;-71
2023/06/25 02:04:24;;;;;;;20.13;14.80;;;14.80;99.90;;;;;;4980562;28;20058;-72
2023/06/25 02:06:50;;;;;;;22.30;16.88;;;14.80;99.90;;;;;;4980070;28;20057;-72
2023/06/25 02:09:16;;;;;;;24.85;15.65;;;14.90;99.90;;;;;;4972079;28;20038;-72
2023/06/25 02:11:42;;;;;;;20.25;14.90;;;14.90;99.90;;;;;;4980156;28;20050;-73
2023/06/25 02:14:08;;;;;;;23.00;15.05;;;14.90;99.90;;;;;;4976344;28;20046;-72
2023/06/25 02:16:34;;;;;;;22.00;16.17;;;14.90;99.90;;;;;;4976853;28;20300;-72
2023/06/25 02:18:59;;;;;;;24.45;15.82;;;14.90;99.90;;;;;;4973093;28;20539;-71
2023/06/25 02:21:25;;;;;;;22.90;16.02;;;14.90;99.90;;;;;;4979644;28;20125;-72
2023/06/25 02:23:51;;;;;;;24.92;16.08;;;14.90;99.90;;;;;;4979807;28;20089;-73
2023/06/25 02:26:16;;;;;;;22.63;16.02;;;14.90;99.90;;;;;;4979565;28;20054;-72
2023/06/25 02:28:42;;;;;;;17.13;10.32;;;14.90;99.90;;;;;;4977909;28;20077;-72
2023/06/25 02:31:08;;;;;;;14.90;10.23;;;14.90;99.90;;;;;;4979673;28;20050;-73
2023/06/25 02:33:34;;;;;;;19.23;10.27;;;14.90;99.90;;;;;;4980009;28;20038;-72
2023/06/25 02:36:02;;;;;;;14.57;10.02;;;14.90;99.90;;;;;;4977034;28;20046;-73
2023/06/25 02:38:28;;;;;;;22.65;13.68;;;14.90;99.90;;;;;;4972402;28;20078;-72
2023/06/25 02:40:54;;;;;;;22.75;14.45;;;14.90;99.90;;;;;;4974816;28;20082;-71
2023/06/25 02:43:20;;;;;;;20.50;14.43;;;14.90;99.90;;;;;;4964919;28;20064;-72
2023/06/25 02:45:46;;;;;;;20.63;14.30;;;14.80;99.90;;;;;;4979487;28;20831;-72
2023/06/25 02:48:11;;;;;;;28.60;17.55;;;14.80;99.90;;;;;;4981055;28;20064;-72
2023/06/25 02:50:38;;;;;;;35.55;21.10;;;14.80;99.90;;;;;;4966139;28;20132;-71
2023/06/25 02:53:03;;;;;;;30.95;18.27;;;14.80;99.90;;;;;;4966407;28;20174;-72
2023/06/25 02:55:29;;;;;;;28.23;16.95;;;14.80;99.90;;;;;;4982912;28;20050;-72
2023/06/25 02:57:56;;;;;;;27.00;17.75;;;14.70;99.90;;;;;;4980417;28;20474;-72
2023/06/25 03:00:22;;;;;;;24.95;15.95;;;14.70;99.90;;;;;;4977192;28;20068;-72
2023/06/25 03:02:48;;;;;;;27.00;15.75;;;14.70;99.90;;;;;;4982947;28;20053;-72
2023/06/25 03:05:14;;;;;;;34.00;17.58;;;14.60;99.90;;;;;;4983335;28;20764;-73
2023/06/25 03:07:57;;;;;;;20.45;14.18;;;14.60;99.90;;;;;;4978783;28;20574;-73
2023/06/25 03:10:28;;;;;;;19.27;14.60;;;14.60;99.90;;;;;;4979190;28;20053;-73
2023/06/25 03:12:54;;;;;;;19.80;14.40;;;14.50;99.90;;;;;;4984148;28;20052;-72
2023/06/25 03:15:20;;;;;;;20.77;13.77;;;14.50;99.90;;;;;;4979990;28;20046;-73
2023/06/25 03:17:46;;;;;;;22.27;15.05;;;14.50;99.90;;;;;;4973097;28;20043;-72
2023/06/25 03:20:13;;;;;;;24.60;17.23;;;14.50;99.90;;;;;;4962188;28;20120;-72
2023/06/25 03:22:39;;;;;;;25.83;16.52;;;14.50;99.90;;;;;;4963071;28;20054;-72
2023/06/25 03:25:05;;;;;;;25.15;15.63;;;14.50;99.90;;;;;;4974223;28;20060;-72
2023/06/25 03:27:33;;;;;;;21.10;15.52;;;14.50;99.90;;;;;;4962034;28;20133;-72
2023/06/25 03:29:58;;;;;;;20.95;14.20;;;14.50;99.90;;;;;;4973166;28;20731;-72
2023/06/25 03:32:24;;;;;;;21.20;14.40;;;14.50;99.90;;;;;;4970372;28;20045;-72
2023/06/25 03:34:50;;;;;;;22.77;14.23;;;14.50;99.90;;;;;;4973566;28;20057;-72
2023/06/25 03:37:16;;;;;;;17.65;11.75;;;14.50;99.90;;;;;;4973337;28;20457;-72
2023/06/25 03:39:41;;;;;;;14.18;9.57;;;14.50;99.90;;;;;;4975069;28;20053;-72
2023/06/25 03:42:07;;;;;;;10.07;8.32;;;14.50;99.90;;;;;;4976606;28;20069;-71
2023/06/25 03:44:33;;;;;;;10.48;7.93;;;14.50;99.90;;;;;;4972378;28;20052;-72
2023/06/25 03:46:59;;;;;;;12.13;8.90;;;14.50;99.90;;;;;;4961707;28;20138;-72
2023/06/25 03:49:24;;;;;;;12.57;9.30;;;14.60;99.90;;;;;;4971299;28;20042;-71
2023/06/25 03:51:50;;;;;;;7.97;5.20;;;14.60;99.90;;;;;;4957166;28;20141;-72
2023/06/25 03:54:16;;;;;;;4.10;0.88;;;14.60;99.90;;;;;;4973624;28;20128;-71
2023/06/25 03:56:41;;;;;;;2.63;1.42;;;14.60;99.90;;;;;;4977000;28;20108;-71
2023/06/25 03:59:08;;;;;;;5.47;3.35;;;14.60;99.90;;;;;;4969839;28;20116;-72
2023/06/25 04:01:33;;;;;;;7.85;6.38;;;14.70;99.90;;;;;;4974560;28;20100;-72
2023/06/25 04:03:59;;;;;;;14.20;8.48;;;14.70;99.90;;;;;;4960450;28;20061;-73
2023/06/25 04:06:25;;;;;;;13.60;8.25;;;14.80;99.90;;;;;;4958472;28;20057;-71
2023/06/25 04:08:51;;;;;;;10.48;7.85;;;14.80;99.90;;;;;;4977789;28;20088;-72
2023/06/25 04:11:16;;;;;;;19.15;13.38;;;14.90;99.90;;;;;;4967581;28;20092;-72
2023/06/25 04:13:42;;;;;;;24.45;17.55;;;15.00;99.90;;;;;;4976953;28;20474;-72
2023/06/25 04:16:09;;;;;;;14.43;9.90;;;15.00;99.90;;;;;;4975234;28;20513;-71
2023/06/25 04:18:37;;;;;;;14.93;10.45;;;15.20;99.90;;;;;;4981537;28;20050;-72
2023/06/25 04:21:04;;;;;;;27.40;18.80;;;15.60;99.90;;;;;;4963363;28;20420;-73
2023/06/25 04:23:30;;;;;;;26.55;18.42;;;16.10;99.90;;;;;;4978220;28;20053;-72
2023/06/25 04:25:55;;;;;;;24.67;18.42;;;16.60;99.90;;;;;;4978968;28;20057;-72
2023/06/25 04:28:21;;;;;;;22.98;17.40;;;17.20;99.90;;;;;;4972760;28;20161;-72
2023/06/25 04:30:47;;;;;;;20.92;16.60;;;20.10;99.90;;;;;;4972932;28;20065;-72
2023/06/25 04:33:13;;;;;;;22.58;15.35;;;18.30;99.90;;;;;;4963226;28;20056;-72
2023/06/25 04:35:38;;;;;;;19.40;14.40;;;18.80;99.90;;;;;;4976052;28;20737;-72
2023/06/25 04:38:04;;;;;;;20.17;14.32;;;19.40;99.90;;;;;;4982151;28;20050;-71
2023/06/25 04:40:30;;;;;;;16.92;13.23;;;19.90;99.90;;;;;;4976743;28;20057;-73
2023/06/25 04:42:56;;;;;;;16.73;12.60;;;20.40;99.90;;;;;;4978602;28;20147;-72
2023/06/25 04:45:22;;;;;;;16.88;13.23;;;20.90;99.90;;;;;;4976135;28;20054;-72
2023/06/25 04:47:48;;;;;;;17.48;12.32;;;21.20;99.90;;;;;;4968340;28;20208;-72
2023/06/25 04:50:13;;;;;;;19.50;13.90;;;21.00;99.90;;;;;;4979940;28;20224;-71
2023/06/25 04:52:39;;;;;;;18.60;14.13;;;20.60;99.70;;;;;;4982372;28;20092;-72
2023/06/25 04:55:06;;;;;;;16.67;13.93;;;20.30;99.40;;;;;;4981354;28;20050;-72
2023/06/25 04:57:32;;;;;;;20.08;13.90;;;22.00;99.70;;;;;;4973813;28;20447;-72
2023/06/25 04:59:58;;;;;;;19.42;14.02;;;20.10;99.20;;;;;;4972253;28;20092;-71
2023/06/25 05:02:23;;;;;;;15.32;13.00;;;20.00;99.50;;;;;;4979193;28;20057;-71
2023/06/25 05:04:49;;;;;;;17.73;13.40;;;19.90;99.20;;;;;;4994628;28;20054;-72
2023/06/25 05:07:15;;;;;;;16.20;12.93;;;20.00;99.10;;;;;;4977201;28;20109;-72
2023/06/25 05:09:41;;;;;;;15.95;13.07;;;20.90;98.30;;;;;;4972824;28;20294;-73
2023/06/25 05:12:07;;;;;;;19.58;14.05;;;21.90;96.90;;;;;;4978203;28;20046;-72
2023/06/25 05:14:32;;;;;;;15.40;13.00;;;22.20;96.00;;;;;;4961923;28;20054;-72
2023/06/25 05:16:58;;;;;;;22.50;13.65;;;21.90;95.90;;;;;;4973087;28;20148;-72
2023/06/25 05:19:24;;;;;;;16.45;13.68;;;21.80;95.90;;;;;;4960499;28;20490;-73
2023/06/25 05:21:50;;;;;;;20.58;12.70;;;21.70;95.80;;;;;;4975333;28;20050;-73
2023/06/25 05:24:15;;;;;;;17.17;13.70;;;21.40;96.20;;;;;;4973961;28;20049;-73
2023/06/25 05:26:41;;;;;;;18.00;13.18;;;21.20;96.30;;;;;;4965236;28;20136;-73
2023/06/25 05:29:07;;;;;;;16.92;12.48;;;21.30;96.30;;;;;;4975497;28;20092;-74
2023/06/25 05:31:33;;;;;;;20.30;13.77;;;21.40;96.30;;;;;;4966580;28;20159;-73
2023/06/25 05:33:58;;;;;;;17.13;13.30;;;21.30;96.00;;;;;;4975874;28;20054;-71
2023/06/25 05:36:24;;;;;;;16.67;12.82;;;21.20;96.00;;;;;;4973804;28;20060;-74
2023/06/25 05:38:50;;;;;;;16.60;12.82;;;21.30;96.10;;;;;;4978558;28;20056;-73
2023/06/25 05:41:16;;;;;;;18.50;12.32;;;21.40;96.10;;;;;;4960834;28;20062;-73
2023/06/25 05:43:42;;;;;;;17.92;12.63;;;21.50;96.00;;;;;;4975070;28;20049;-72
2023/06/25 05:46:11;;;;;;;15.95;12.25;;;21.70;95.80;;;;;;4973345;28;20042;-73
2023/06/25 05:48:40;;;;;;;15.18;12.65;;;22.80;94.90;;;;;;4978006;28;20800;-72
2023/06/25 05:51:06;;;;;;;16.33;12.25;;;24.20;93.20;;;;;;4974644;28;20081;-73
2023/06/25 05:53:40;;;;;;;14.40;10.38;;;25.70;91.10;;;;;;4959828;28;20137;-73
2023/06/25 05:56:07;;;;;;;12.25;9.95;;;26.90;87.80;;;;;;4977091;28;20130;-73
2023/06/25 05:58:34;;;;;;;11.02;9.82;;;27.70;84.90;;;;;;4976088;28;20054;-75
2023/06/25 06:01:00;;;;;;;13.00;9.90;;;28.30;81.90;;;;;;4976661;28;20101;-73
2023/06/25 06:03:26;;;;;;;13.32;9.23;;;29.00;79.70;;;;;;4967381;28;20486;-74
2023/06/25 06:05:54;;;;;;;12.95;9.70;;;30.00;76.90;;;;;;4981337;28;20109;-73
2023/06/25 06:08:19;;;;;;;12.10;9.70;;;30.70;73.60;;;;;;4983396;28;20050;-73
2023/06/25 06:10:46;;;;;;;11.75;9.73;;;31.50;72.00;;;;;;4963385;28;20061;-74
2023/06/25 06:13:12;;;;;;;12.98;10.15;;;32.20;68.80;;;;;;4977815;28;20058;-76
2023/06/25 06:15:38;;;;;;;12.60;10.43;;;32.80;65.90;;;;;;4981647;28;20406;-76
2023/06/25 06:18:03;;;;;;;14.13;10.25;;;33.30;64.10;;;;;;4984242;28;20054;-75
2023/06/25 06:20:29;;;;;;;13.05;11.13;;;33.60;62.00;;;;;;4978991;28;20085;-76
2023/06/25 06:22:57;;;;;;;12.43;10.00;;;34.10;60.60;;;;;;4998432;28;20045;-73
2023/06/25 06:25:23;;;;;;;11.70;9.82;;;34.50;59.80;;;;;;4979573;28;20046;-73
2023/06/25 06:27:49;;;;;;;14.90;10.20;;;34.90;58.50;;;;;;4964660;28;20103;-74
2023/06/25 06:30:15;;;;;;;11.13;10.02;;;35.30;57.60;;;;;;4983365;28;20050;-74
2023/06/25 06:32:41;;;;;;;11.02;9.63;;;35.60;56.90;;;;;;4967001;28;20061;-75
2023/06/25 06:35:07;;;;;;;11.40;10.25;;;36.10;56.40;;;;;;4980250;28;20057;-75
2023/06/25 06:37:32;;;;;;;15.32;10.55;;;36.50;55.10;;;;;;4983030;28;20052;-74
2023/06/25 06:39:58;;;;;;;12.52;10.68;;;37.00;54.10;;;;;;4981425;28;20439;-75
2023/06/25 06:42:24;;;;;;;11.32;10.13;;;36.90;52.90;;;;;;4967699;28;20115;-74
2023/06/25 06:44:50;;;;;;;9.93;8.80;;;37.80;52.60;;;;;;4981654;28;20511;-76
2023/06/25 06:47:16;;;;;;;13.05;10.38;;;38.40;52.80;;;;;;4982003;28;20056;-73
2023/06/25 06:49:41;;;;;;;12.27;10.52;;;38.80;51.30;;;;;;4974202;28;20089;-73
2023/06/25 06:52:07;;;;;;;11.48;10.18;;;39.30;50.00;;;;;;4982776;28;20579;-74
2023/06/25 06:54:33;;;;;;;10.60;9.07;;;39.70;49.30;;;;;;4981693;28;20053;-73
2023/06/25 06:56:59;;;;;;;11.00;9.40;;;40.20;49.50;;;;;;4982379;28;20088;-75
2023/06/25 06:59:24;;;;;;;12.05;10.80;;;40.50;48.60;;;;;;4962531;28;20160;-76
2023/06/25 07:01:50;;;;;;;12.00;10.48;;;40.80;47.70;;;;;;4984539;28;20050;-76
2023/06/25 07:04:16;;;;;;;12.18;10.80;;;40.60;46.70;;;;;;4976865;28;20054;-74
2023/06/25 07:06:42;;;;;;;10.60;9.60;;;40.70;46.40;;;;;;4984514;28;20054;-72
2023/06/25 07:09:08;;;;;;;12.07;10.88;;;40.80;46.50;;;;;;4962965;28;20050;-72
2023/06/25 07:11:33;;;;;;;11.63;10.40;;;41.10;46.10;;;;;;4972278;28;20080;-75
2023/06/25 07:13:59;;;;;;;12.30;9.68;;;41.40;45.80;;;;;;4960676;28;20050;-73
2023/06/25 07:16:25;;;;;;;11.50;10.40;;;41.40;45.30;;;;;;4983137;28;20046;-74
2023/06/25 07:18:51;;;;;;;12.25;10.95;;;41.60;44.40;;;;;;4979997;28;20046;-73
2023/06/25 07:21:16;;;;;;;11.52;10.43;;;41.70;44.60;;;;;;4979668;28;20050;-75
2023/06/25 07:23:42;;;;;;;12.90;10.43;;;42.10;44.40;;;;;;4965716;28;20089;-75
2023/06/25 07:26:08;;;;;;;11.05;9.60;;;42.60;43.80;;;;;;4981881;28;20089;-74
2023/06/25 07:28:34;;;;;;;13.13;10.02;;;42.70;43.70;;;;;;4983136;28;20046;-72
2023/06/25 07:30:59;;;;;;;11.32;10.27;;;43.10;43.20;;;;;;4983430;28;20140;-74
2023/06/25 07:33:25;;;;;;;10.75;9.10;;;43.70;42.40;;;;;;4979785;28;20064;-74
2023/06/25 07:35:51;;;;;;;9.02;8.13;;;43.90;42.20;;;;;;4966052;28;20116;-72
2023/06/25 07:38:17;;;;;;;10.52;9.60;;;42.60;41.80;;;;;;4972661;28;20135;-73
2023/06/25 07:40:42;;;;;;;9.43;8.50;;;44.00;41.60;;;;;;4978001;28;20044;-73
2023/06/25 07:43:08;;;;;;;10.98;8.98;;;44.40;41.40;;;;;;4984021;28;20069;-74
2023/06/25 07:45:34;;;;;;;11.38;9.40;;;44.70;40.70;;;;;;4987159;28;20054;-72
2023/06/25 07:48:00;;;;;;;10.15;9.15;;;44.90;40.20;;;;;;4980447;28;20574;-72
2023/06/25 07:50:25;;;;;;;10.88;9.77;;;43.90;39.50;;;;;;4985309;28;20049;-73
2023/06/25 07:52:51;;;;;;;8.80;7.95;;;45.70;39.50;;;;;;4981259;28;20054;-74
2023/06/25 07:55:17;;;;;;;11.05;9.07;;;45.90;39.60;;;;;;4969274;28;20061;-75
2023/06/25 07:57:43;;;;;;;10.52;9.48;;;46.00;39.10;;;;;;4986268;28;20064;-73
2023/06/25 08:00:09;;;;;;;10.90;8.90;;;46.20;38.40;;;;;;4957548;28;20134;-72
2023/06/25 08:02:35;;;;;;;12.00;8.80;;;46.20;38.00;;;;;;4983136;28;20061;-73
2023/06/25 08:05:01;;;;;;;8.35;7.65;;;46.20;38.80;;;;;;4984689;28;20064;-72
2023/06/25 08:07:27;;;;;;;9.63;8.60;;;46.30;39.10;;;;;;4988331;28;20141;-72
2023/06/25 08:09:52;;;;;;;10.38;9.38;;;46.20;38.60;;;;;;4988973;28;20121;-73
2023/06/25 08:12:18;;;;;;;11.95;9.52;;;46.70;38.30;;;;;;4988969;28;20058;-73
2023/06/25 08:14:45;;;;;;;9.40;8.50;;;46.60;38.00;;;;;;4988308;28;20109;-75
2023/06/25 08:17:11;;;;;;;11.05;10.05;;;46.50;38.10;;;;;;4988536;28;20089;-73
2023/06/25 08:19:37;;;;;;;9.50;8.50;;;46.00;37.30;;;;;;4987182;28;20579;-74
2023/06/25 08:22:02;;;;;;;9.50;7.50;;;46.20;37.90;;;;;;4984584;28;20267;-73
2023/06/25 08:24:28;;;;;;;6.80;6.10;;;46.30;38.40;;;;;;4982617;28;20502;-73
2023/06/25 08:26:54;;;;;;;9.73;8.82;;;46.20;37.90;;;;;;4981475;28;20050;-75
2023/06/25 08:29:21;;;;;;;6.65;4.95;;;46.10;37.60;;;;;;4986042;28;20042;-74
2023/06/25 08:31:46;;;;;;;9.57;8.68;;;46.10;38.30;;;;;;4981090;28;20571;-73
2023/06/25 08:34:12;;;;;;;13.23;9.13;;;46.20;37.70;;;;;;4984766;28;20184;-73
2023/06/25 08:36:38;;;;;;;9.48;8.20;;;46.40;36.90;;;;;;4984946;28;20054;-76
2023/06/25 08:39:04;;;;;;;11.20;7.25;;;46.30;37.40;;;;;;4985872;28;20503;-76
2023/06/25 08:41:32;;;;;;;8.65;7.85;;;46.10;37.90;;;;;;4985269;28;20089;-76
2023/06/25 08:44:00;;;;;;;9.38;6.80;;;46.20;37.70;;;;;;4926198;28;20148;-76
2023/06/25 08:46:26;;;;;;;8.88;7.75;;;46.30;38.00;;;;;;4951018;28;20188;-72
2023/06/25 08:48:54;;;;;;;6.85;6.03;;;46.30;36.90;;;;;;4954732;28;20582;-76
2023/06/25 08:51:23;;;;;;;7.78;7.03;;;46.50;37.10;;;;;;4966214;28;20200;-71
2023/06/25 08:53:50;;;;;;;7.60;6.90;;;46.40;37.50;;;;;;4953477;28;21069;-73
2023/06/25 08:56:16;;;;;;;7.00;6.25;;;46.20;37.20;;;;;;4952255;28;20687;-71
2023/06/25 08:58:43;;;;;;;8.27;6.85;;;46.30;36.60;;;;;;4954893;28;20064;-73
2023/06/25 09:01:13;;;;;;;8.45;5.32;;;46.20;36.40;;;;;;4956193;28;20273;-71
2023/06/25 09:03:41;;;;;;;8.00;6.22;;;46.20;37.80;;;;;;4955925;28;20093;-73
2023/06/25 09:06:17;;;;;;;7.45;6.75;;;46.40;36.20;;;;;;4951010;28;20066;-75
2023/06/25 09:08:43;;;;;;;7.18;6.47;;;46.30;36.20;;;;;;4966079;28;20053;-72
2023/06/25 09:11:10;;;;;;;6.65;4.90;;;46.10;35.60;;;;;;4963527;28;20069;-71
2023/06/25 09:13:39;;;;;;;7.18;6.05;;;46.10;36.80;;;;;;4963187;28;20108;-73
2023/06/25 09:16:10;;;;;;;6.03;5.05;;;46.30;36.00;;;;;;4961921;28;20043;-73
2023/06/25 09:18:36;;;;;;;5.28;4.78;;;46.40;36.40;;;;;;4961694;28;20180;-70
2023/06/25 09:21:08;;;;;;;5.07;4.50;;;46.40;36.20;;;;;;4963868;28;20081;-71
2023/06/25 09:23:35;;;;;;;7.20;6.50;;;46.70;36.50;;;;;;4954479;28;20265;-73
2023/06/25 09:26:08;;;;;;;6.65;5.30;;;46.90;34.50;;;;;;4963701;28;20066;-73
2023/06/25 09:28:42;;;;;;;4.85;4.03;;;47.00;35.40;;;;;;4944760;28;20062;-73
2023/06/25 09:31:08;;;;;;;5.57;4.88;;;46.60;35.10;;;;;;4961985;28;20060;-73
2023/06/25 09:33:37;;;;;;;4.10;3.70;;;46.40;35.00;;;;;;4962957;28;20049;-72
2023/06/25 09:36:04;;;;;;;4.97;3.72;;;46.60;36.10;;;;;;4964218;28;20415;-74
2023/06/25 09:38:32;;;;;;;4.75;4.32;;;46.60;34.50;;;;;;4962539;28;20065;-69
2023/06/25 09:40:59;;;;;;;5.50;3.95;;;46.90;34.10;;;;;;4961646;28;20050;-72
2023/06/25 09:43:27;;;;;;;7.70;4.72;;;46.90;33.50;;;;;;4938093;28;20085;-74
2023/06/25 09:45:55;;;;;;;6.15;4.68;;;46.20;33.90;;;;;;4970018;28;20062;-72
2023/06/25 09:48:24;;;;;;;5.38;4.68;;;45.80;34.40;;;;;;4964625;28;20049;-74
2023/06/25 09:50:55;;;;;;;5.43;3.90;;;45.50;34.20;;;;;;4966503;28;20058;-73
2023/06/25 09:53:23;;;;;;;4.53;2.88;;;45.10;35.80;;;;;;4953215;28;20148;-76
2023/06/25 09:55:51;;;;;;;6.63;5.07;;;44.90;36.70;;;;;;4962948;28;20816;-73
2023/06/25 09:58:18;;;;;;;4.38;3.28;;;44.90;35.20;;;;;;4953421;28;20057;-75
2023/06/25 10:00:47;;;;;;;5.15;3.08;;;45.10;36.30;;;;;;4964679;28;20460;-73
2023/06/25 10:03:15;;;;;;;3.85;2.75;;;45.40;35.20;;;;;;4938361;28;20064;-74
2023/06/25 10:05:42;;;;;;;5.05;2.75;;;45.50;34.10;;;;;;4960949;28;20088;-75
2023/06/25 10:08:12;;;;;;;3.33;2.75;;;45.80;34.30;;;;;;4963206;28;20132;-74
2023/06/25 10:10:38;;;;;;;4.28;3.30;;;46.00;34.50;;;;;;4948381;28;20819;-71
2023/06/25 10:13:05;;;;;;;4.55;3.08;;;46.20;34.00;;;;;;4958382;28;20053;-74
2023/06/25 10:15:36;;;;;;;3.05;2.75;;;46.10;33.80;;;;;;4962237;28;20183;-72
2023/06/25 10:18:04;;;;;;;5.22;3.35;;;45.90;33.50;;;;;;4960223;28;20069;-74
2023/06/25 10:20:33;;;;;;;4.72;3.50;;;45.10;33.80;;;;;;4946582;28;20482;-71
2023/06/25 10:23:11;;;;;;;4.68;3.20;;;44.30;34.40;;;;;;4960807;28;20140;-73
2023/06/25 10:25:39;;;;;;;4.18;3.15;;;43.90;35.00;;;;;;4952531;28;20061;-70
2023/06/25 10:28:08;;;;;;;5.10;3.08;;;43.10;34.80;;;;;;4958915;28;20160;-73
2023/06/25 10:30:46;;;;;;;3.20;2.90;;;43.70;35.30;;;;;;4959233;28;20116;-74
2023/06/25 10:33:17;;;;;;;3.33;2.95;;;43.50;34.80;;;;;;4961395;28;20132;-73
2023/06/25 10:35:46;;;;;;;3.88;2.47;;;43.50;35.20;;;;;;4946345;28;20525;-72
2023/06/25 10:38:12;;;;;;;3.85;2.75;;;43.20;34.80;;;;;;4949608;28;20179;-74
2023/06/25 10:40:40;;;;;;;4.25;3.17;;;42.90;34.90;;;;;;4964873;28;20057;-73
2023/06/25 10:43:09;;;;;;;7.18;3.60;;;41.40;35.40;;;;;;4961885;28;20054;-76
2023/06/25 10:45:36;;;;;;;3.05;2.75;;;41.90;35.60;;;;;;4945930;28;20503;-73
2023/06/25 10:48:06;;;;;;;3.40;2.72;;;41.20;37.20;;;;;;4965418;28;20049;-70
2023/06/25 10:50:33;;;;;;;5.55;3.10;;;40.70;37.40;;;;;;4958899;28;20137;-69
2023/06/25 10:52:59;;;;;;;4.85;3.00;;;40.00;37.60;;;;;;4940836;28;20062;-70
2023/06/25 10:55:25;;;;;;;4.15;2.88;;;39.00;37.30;;;;;;4941986;28;20168;-76
2023/06/25 10:57:55;;;;;;;3.25;2.53;;;37.90;38.40;;;;;;4956354;28;20164;-72
2023/06/25 11:00:27;;;;;;;5.43;3.03;;;36.90;40.50;;;;;;4963122;28;20058;-74
2023/06/25 11:02:55;;;;;;;5.38;3.10;;;36.00;41.30;;;;;;4953707;28;20148;-74
2023/06/25 11:05:41;;;;;;;4.38;2.67;;;35.20;41.50;;;;;;4946048;28;20490;-78
2023/06/25 11:08:09;;;;;;;3.80;2.67;;;34.50;42.10;;;;;;4961554;28;20046;-73
2023/06/25 11:10:37;;;;;;;5.90;3.05;;;33.60;43.00;;;;;;4958884;28;20080;-73
2023/06/25 11:13:04;;;;;;;3.63;2.60;;;33.10;43.60;;;;;;4986310;28;20599;-75
2023/06/25 11:15:32;;;;;;;4.32;2.83;;;32.60;43.70;;;;;;4950371;28;20438;-74
2023/06/25 11:17:59;;;;;;;3.55;2.60;;;32.30;45.00;;;;;;4957058;28;20280;-73
2023/06/25 11:20:26;;;;;;;3.50;3.05;;;30.30;44.90;;;;;;4960320;28;20070;-75
2023/06/25 11:22:57;;;;;;;5.15;2.92;;;31.90;45.80;;;;;;4970164;28;20060;-74
2023/06/25 11:25:25;;;;;;;4.38;2.40;;;31.70;45.90;;;;;;4969574;28;20085;-72
2023/06/25 11:28:13;;;;;;;6.32;2.83;;;31.50;47.00;;;;;;4974409;28;20073;-75
2023/06/25 11:30:40;;;;;;;3.78;2.42;;;31.40;47.50;;;;;;4971547;28;20160;-72
2023/06/25 11:33:11;;;;;;;6.50;2.70;;;31.20;46.70;;;;;;4956097;28;20046;-75
2023/06/25 11:35:39;;;;;;;6.07;2.83;;;31.10;47.40;;;;;;4958160;23;20621;-74
2023/06/25 11:38:10;;;;;;;6.45;2.42;;;31.00;46.50;;;;;;4965179;23;20047;-72
2023/06/25 11:43:55;;;;;;;6.25;2.55;;;30.90;46.10;;;;;;4141541;23;20062;-75
2023/06/25 11:46:23;;;;;;;4.15;2.65;;;30.70;47.40;;;;;;4971486;23;20063;-76
2023/06/25 11:49:11;;;;;;;4.70;2.92;;;30.60;48.20;;;;;;4967187;23;20071;-75
2023/06/25 11:51:37;;;;;;;3.20;2.58;;;30.50;48.90;;;;;;4944011;28;20150;-75
2023/06/25 11:54:09;;;;;;;3.53;2.63;;;30.50;49.00;;;;;;4927014;28;20097;-78
2023/06/25 11:57:36;;;;;;;4.43;2.60;;;30.40;47.00;;;;;;4968390;28;20039;-81
2023/06/25 12:01:32;;;;;;;4.15;2.30;;;30.40;48.30;;;;;;4952097;28;20077;-76
2023/06/25 12:04:43;;;;;;;5.93;2.78;;;30.30;49.40;;;;;;4894887;29;20322;-75
2023/06/25 12:07:29;;;;;;;5.10;2.60;;;30.30;48.50;;;;;;4908781;29;20055;-72
2023/06/25 12:10:32;;;;;;;6.05;2.80;;;30.30;50.90;;;;;;4895180;29;20087;-74
2023/06/25 12:12:59;;;;;;;4.88;3.13;;;30.30;48.40;;;;;;4884203;29;20248;-71
2023/06/25 12:15:29;;;;;;;5.47;2.78;;;30.20;49.00;;;;;;4884288;29;20060;-77
2023/06/25 12:17:57;;;;;;;3.20;2.47;;;30.10;49.10;;;;;;4884162;29;20060;-76
2023/06/25 12:20:38;;;;;;;4.05;2.63;;;30.10;49.60;;;;;;4881111;29;20188;-77
2023/06/25 12:23:04;;;;;;;4.07;2.95;;;30.10;48.80;;;;;;4848007;29;20256;-75
2023/06/25 12:26:01;;;;;;;5.38;3.15;;;30.10;49.10;;;;;;4880915;29;20123;-73
2023/06/25 12:28:49;;;;;;;4.88;2.95;;;30.10;49.00;;;;;;4885229;29;20050;-76
2023/06/25 12:31:29;;;;;;;3.45;2.67;;;30.00;49.30;;;;;;4865880;29;20059;-74
2023/06/25 12:34:04;;;;;;;4.25;2.78;;;30.00;48.30;;;;;;4880306;29;20048;-72
2023/06/25 12:36:48;;;;;;;4.97;2.80;;;30.10;48.80;;;;;;4890105;29;20052;-73
2023/06/25 12:39:26;;;;;;;3.63;2.60;;;29.90;48.60;;;;;;4875513;29;20064;-75
2023/06/25 12:42:06;;;;;;;5.38;3.80;;;30.00;49.90;;;;;;4900932;29;20056;-77
2023/06/25 12:45:06;;;;;;;4.32;2.75;;;30.10;48.40;;;;;;4906537;29;20167;-77